Time;durP1;ratioP1;P1;durP2;ratioP2;P2;SDS_P1;SDS_P2;PMS_P1;PMS_P2;Temp;Humidity;BMP_temperature;BMP_pressure;BME280_temperature;BME280_humidity;BME280_pressure;Samples;Min_cycle;Max_cycle;Signal;HPM_P1;HPM_P2
2022/10/28 00:02:04;;;;;;;10.00;5.13;;;18.00;54.40;;;;;;20399;6881;302245;-86
2022/10/28 00:04:30;;;;;;;8.23;4.75;;;18.20;54.10;;;;;;20616;6882;117693;-86
2022/10/28 00:06:55;;;;;;;7.33;5.00;;;17.90;54.40;;;;;;20399;6882;299606;-85
2022/10/28 00:09:21;;;;;;;9.50;4.80;;;17.90;54.50;;;;;;20607;6883;117770;-85
2022/10/28 00:11:46;;;;;;;8.40;5.57;;;17.70;54.80;;;;;;20389;6883;308723;-87
2022/10/28 00:14:13;;;;;;;9.03;5.07;;;17.70;55.00;;;;;;20628;6883;124255;-85
2022/10/28 00:16:38;;;;;;;6.53;4.90;;;17.50;55.10;;;;;;20407;6883;337534;-85
2022/10/28 00:19:03;;;;;;;6.90;4.62;;;17.50;55.00;;;;;;20607;6883;117580;-86
2022/10/28 00:21:29;;;;;;;7.13;5.33;;;17.40;55.20;;;;;;20361;6883;279645;-85
2022/10/28 00:23:54;;;;;;;11.25;4.97;;;17.50;55.40;;;;;;20609;6883;117926;-85
2022/10/28 00:26:21;;;;;;;9.63;4.90;;;17.10;55.80;;;;;;20618;6883;118098;-85
2022/10/28 00:28:46;;;;;;;10.23;4.80;;;17.10;55.80;;;;;;20401;6883;338360;-86
2022/10/28 00:31:12;;;;;;;4.93;4.57;;;17.20;55.90;;;;;;20596;6883;118051;-86
2022/10/28 00:33:37;;;;;;;7.30;4.50;;;17.20;55.90;;;;;;20595;6883;123477;-85
2022/10/28 00:36:09;;;;;;;9.57;4.53;;;16.90;56.20;;;;;;20627;6883;117729;-85
2022/10/28 00:38:36;;;;;;;8.37;5.10;;;16.60;57.00;;;;;;20620;6883;117365;-86
2022/10/28 00:41:01;;;;;;;9.10;5.30;;;16.60;57.00;;;;;;20634;6883;120847;-85
2022/10/28 00:43:40;;;;;;;7.63;4.57;;;16.50;57.20;;;;;;20606;6883;154122;-85
2022/10/28 00:46:29;;;;;;;6.20;4.77;;;16.40;57.30;;;;;;20612;6883;117574;-85
2022/10/28 00:48:54;;;;;;;6.73;5.07;;;16.30;57.50;;;;;;20391;6883;309627;-85
2022/10/28 00:51:20;;;;;;;8.50;5.23;;;17.10;56.40;;;;;;20401;6883;312768;-86
2022/10/28 00:53:47;;;;;;;7.73;4.67;;;17.00;56.30;;;;;;20601;6883;122327;-86
2022/10/28 00:56:12;;;;;;;11.00;4.70;;;17.00;56.10;;;;;;20617;6883;117898;-86
2022/10/28 00:58:37;;;;;;;7.10;4.80;;;16.80;56.30;;;;;;20416;6883;309938;-86
2022/10/28 01:01:03;;;;;;;7.80;4.87;;;17.00;56.40;;;;;;20624;6883;117348;-86
2022/10/28 01:03:29;;;;;;;7.80;4.85;;;17.10;56.70;;;;;;20387;6883;310623;-87
2022/10/28 01:05:55;;;;;;;5.90;5.03;;;17.10;56.10;;;;;;20402;6883;282721;-85
2022/10/28 01:08:20;;;;;;;9.45;5.07;;;17.40;55.50;;;;;;20398;6883;309079;-86
2022/10/28 01:11:10;;;;;;;5.43;4.80;;;17.40;55.00;;;;;;20615;6883;117771;-85
2022/10/28 01:14:15;;;;;;;5.37;3.87;;;17.40;55.30;;;;;;20599;6881;117448;-86
2022/10/28 01:16:48;;;;;;;8.20;5.20;;;17.00;55.60;;;;;;20393;6882;309653;-86
2022/10/28 01:19:34;;;;;;;8.20;5.50;;;17.40;55.20;;;;;;20376;6882;341388;-85
2022/10/28 01:22:23;;;;;;;5.57;4.60;;;17.40;55.20;;;;;;19990;6883;117641;-86
2022/10/28 01:25:11;;;;;;;6.93;5.72;;;17.20;55.40;;;;;;20402;6883;280158;-86
2022/10/28 01:27:40;;;;;;;5.40;4.90;;;17.20;55.30;;;;;;20566;6883;122992;-85
2022/10/28 01:30:12;;;;;;;7.93;5.15;;;17.00;55.60;;;;;;20375;6883;308764;-87
2022/10/28 01:32:46;;;;;;;6.23;5.00;;;17.10;55.90;;;;;;20395;6883;280848;-85
2022/10/28 01:35:32;;;;;;;8.07;4.67;;;17.30;55.40;;;;;;20605;6883;118458;-86
2022/10/28 01:38:28;;;;;;;6.00;5.30;;;17.10;55.40;;;;;;20371;6883;310536;-85
2022/10/28 01:41:06;;;;;;;6.50;4.33;;;17.20;55.30;;;;;;20391;6883;286133;-86
2022/10/28 01:43:42;;;;;;;9.63;5.35;;;17.40;55.00;;;;;;19324;7242;316250;-85
2022/10/28 01:46:07;;;;;;;5.93;4.50;;;17.50;54.20;;;;;;20533;6883;117720;-86
2022/10/28 01:48:53;;;;;;;10.73;4.53;;;17.20;54.50;;;;;;20589;6883;117480;-85
2022/10/28 01:51:31;;;;;;;6.63;4.90;;;16.80;55.20;;;;;;20730;6781;120086;-85
2022/10/28 01:54:08;;;;;;;5.82;5.00;;;16.60;56.20;;;;;;20590;6781;281622;-86
2022/10/28 01:56:43;;;;;;;10.27;5.00;;;16.60;56.20;;;;;;20747;6774;120235;-86
2022/10/28 01:59:19;;;;;;;6.90;4.90;;;16.50;56.10;;;;;;20864;6763;117980;-85
2022/10/28 02:01:54;;;;;;;6.87;4.57;;;16.20;56.40;;;;;;20830;6763;120020;-86
2022/10/28 02:04:30;;;;;;;5.90;4.70;;;16.00;56.80;;;;;;20786;6789;118116;-87
2022/10/28 02:07:06;;;;;;;4.40;4.10;;;15.80;57.20;;;;;;20748;6763;116540;-85
2022/10/28 02:10:01;;;;;;;6.10;5.27;;;15.70;57.50;;;;;;20787;6769;117069;-85
2022/10/28 02:12:36;;;;;;;5.25;4.75;;;15.60;57.80;;;;;;20545;6779;341414;-85
2022/10/28 02:15:12;;;;;;;5.13;4.53;;;16.00;57.80;;;;;;20765;6799;123652;-88
2022/10/28 02:18:16;;;;;;;6.00;4.80;;;16.20;57.40;;;;;;20601;6793;278423;-85
2022/10/28 02:20:57;;;;;;;7.40;5.10;;;16.20;57.50;;;;;;20544;6789;280064;-86
2022/10/28 02:23:40;;;;;;;6.43;4.70;;;16.50;56.30;;;;;;20478;6797;282223;-86
2022/10/28 02:26:16;;;;;;;6.40;4.70;;;16.70;55.60;;;;;;20447;6802;344751;-85
2022/10/28 02:29:04;;;;;;;6.10;4.70;;;16.80;54.80;;;;;;20542;6829;307693;-85
2022/10/28 02:31:50;;;;;;;6.73;5.20;;;17.00;54.40;;;;;;20612;6770;287871;-85
2022/10/28 02:34:26;;;;;;;5.60;4.62;;;17.00;54.60;;;;;;20614;6770;308028;-85
2022/10/28 02:37:02;;;;;;;5.27;4.77;;;17.00;54.60;;;;;;20744;6758;117066;-86
2022/10/28 02:39:37;;;;;;;6.97;4.23;;;16.70;55.10;;;;;;20861;6758;117471;-87
2022/10/28 02:42:16;;;;;;;7.63;5.33;;;16.30;55.80;;;;;;20662;6758;306081;-86
2022/10/28 02:44:52;;;;;;;7.17;4.17;;;16.30;55.70;;;;;;20871;6758;117142;-87
2022/10/28 02:47:27;;;;;;;11.77;5.15;;;16.20;55.90;;;;;;20476;6758;339005;-85
2022/10/28 02:50:03;;;;;;;5.63;4.73;;;16.20;55.60;;;;;;20666;6758;306629;-86
2022/10/28 02:52:41;;;;;;;6.17;5.03;;;16.50;55.70;;;;;;20617;6770;321537;-86
2022/10/28 02:55:14;;;;;;;6.80;4.63;;;16.70;55.50;;;;;;20836;6770;117682;-85
2022/10/28 02:57:50;;;;;;;5.60;4.37;;;16.40;55.60;;;;;;20538;6800;121758;-86
2022/10/28 03:00:25;;;;;;;8.68;4.97;;;16.10;56.20;;;;;;20509;6790;290675;-87
2022/10/28 03:03:01;;;;;;;5.17;4.70;;;16.00;56.20;;;;;;20725;6787;123132;-87
2022/10/28 03:05:37;;;;;;;7.50;4.47;;;16.00;56.20;;;;;;20711;6787;144092;-85
2022/10/28 03:08:13;;;;;;;8.93;4.70;;;15.70;57.40;;;;;;20747;6787;117276;-88
2022/10/28 03:10:48;;;;;;;6.10;4.43;;;15.50;57.30;;;;;;20794;6772;117289;-88
2022/10/28 03:13:24;;;;;;;7.90;5.20;;;15.30;57.60;;;;;;20501;6787;278735;-85
2022/10/28 03:16:00;;;;;;;6.40;5.30;;;15.90;57.60;;;;;;20543;6772;307528;-85
2022/10/28 03:18:36;;;;;;;6.43;5.67;;;15.90;57.00;;;;;;20575;6772;307574;-86
2022/10/28 03:21:11;;;;;;;6.43;5.73;;;16.20;56.30;;;;;;20532;6787;280216;-87
2022/10/28 03:23:47;;;;;;;8.75;5.85;;;16.40;56.30;;;;;;20550;6772;341766;-85
2022/10/28 03:26:22;;;;;;;9.53;5.97;;;16.50;56.60;;;;;;20478;6787;280168;-84
2022/10/28 03:28:58;;;;;;;8.90;5.35;;;16.70;56.60;;;;;;20487;6808;278853;-88
2022/10/28 03:31:34;;;;;;;10.17;5.10;;;16.80;56.30;;;;;;20612;6812;117935;-87
2022/10/28 03:34:09;;;;;;;4.97;4.43;;;16.60;56.60;;;;;;20670;6812;118126;-87
2022/10/28 03:36:45;;;;;;;7.03;5.12;;;16.20;57.20;;;;;;20489;6791;327606;-86
2022/10/28 03:39:20;;;;;;;8.53;4.57;;;16.30;57.00;;;;;;20778;6790;117075;-86
2022/10/28 03:41:57;;;;;;;8.47;5.00;;;15.90;57.40;;;;;;20775;6790;123087;-86
2022/10/28 03:44:32;;;;;;;8.20;4.43;;;15.90;57.40;;;;;;20751;6794;122365;-87
2022/10/28 03:47:11;;;;;;;7.50;4.90;;;15.70;57.80;;;;;;20674;6794;119969;-86
2022/10/28 03:49:45;;;;;;;8.33;5.13;;;15.40;58.10;;;;;;20537;6790;301314;-87
2022/10/28 03:52:24;;;;;;;9.23;4.90;;;15.60;57.80;;;;;;20563;6790;280363;-85
2022/10/28 03:54:56;;;;;;;8.97;5.40;;;16.00;57.50;;;;;;20557;6790;277633;-87
2022/10/28 03:57:32;;;;;;;8.80;5.68;;;16.40;56.60;;;;;;20411;6790;310233;-85
2022/10/28 04:00:08;;;;;;;9.63;5.20;;;16.60;56.20;;;;;;20782;6772;117198;-87
2022/10/28 04:02:50;;;;;;;9.33;5.20;;;16.40;56.30;;;;;;20747;6772;117016;-88
2022/10/28 04:05:25;;;;;;;4.87;4.40;;;16.10;57.00;;;;;;20775;6772;120612;-89
2022/10/28 04:08:01;;;;;;;4.80;4.23;;;15.80;57.60;;;;;;20674;6772;117753;-85
2022/10/28 04:10:36;;;;;;;7.10;4.73;;;15.70;58.30;;;;;;20893;6757;117143;-85
2022/10/28 04:13:12;;;;;;;7.03;5.30;;;15.60;58.70;;;;;;20653;6757;305241;-88
2022/10/28 04:15:47;;;;;;;7.30;5.57;;;15.90;59.10;;;;;;20656;6757;282526;-85
2022/10/28 04:18:23;;;;;;;9.00;5.20;;;16.30;58.20;;;;;;20889;6759;117103;-85
2022/10/28 04:21:04;;;;;;;8.53;5.07;;;16.30;57.90;;;;;;20887;6754;117186;-87
2022/10/28 04:23:34;;;;;;;6.65;5.03;;;16.10;58.10;;;;;;20606;6773;312493;-89
2022/10/28 04:26:10;;;;;;;7.50;5.37;;;16.30;58.10;;;;;;20534;6781;309336;-87
2022/10/28 04:28:45;;;;;;;5.17;4.43;;;16.70;57.10;;;;;;20759;6774;117238;-90
2022/10/28 04:31:22;;;;;;;7.33;5.30;;;16.70;56.60;;;;;;20558;6774;308136;-87
2022/10/28 04:33:57;;;;;;;4.83;4.50;;;16.70;56.60;;;;;;20790;6774;117715;-86
2022/10/28 04:36:33;;;;;;;7.07;5.57;;;16.50;56.70;;;;;;20725;6774;117167;-91
2022/10/28 04:39:08;;;;;;;8.13;4.95;;;16.30;57.30;;;;;;20570;6774;278149;-91
2022/10/28 04:41:44;;;;;;;5.20;4.37;;;16.40;57.30;;;;;;20769;6774;119956;-86
2022/10/28 04:44:26;;;;;;;5.30;4.90;;;16.40;57.30;;;;;;20905;6830;67314;-96
2022/10/28 04:46:58;;;;;;;7.28;5.43;;;16.20;57.60;;;;;;20467;6774;343622;-85
2022/10/28 04:49:34;;;;;;;8.30;5.73;;;16.40;57.60;;;;;;20565;6774;306799;-85
2022/10/28 04:52:10;;;;;;;5.73;5.10;;;16.70;56.80;;;;;;20805;6773;117121;-91
2022/10/28 04:54:46;;;;;;;5.93;5.00;;;16.70;56.80;;;;;;20567;6774;344424;-89
2022/10/28 04:57:22;;;;;;;6.57;4.17;;;16.70;56.70;;;;;;20680;6774;116976;-85
2022/10/28 04:59:58;;;;;;;9.57;6.10;;;16.70;56.40;;;;;;20590;6774;335815;-89
2022/10/28 05:02:34;;;;;;;6.53;5.37;;;16.70;56.40;;;;;;20800;6774;117183;-85
2022/10/28 05:05:10;;;;;;;7.55;6.75;;;16.80;56.50;;;;;;20579;6774;290654;-85
2022/10/28 05:07:46;;;;;;;8.93;5.93;;;16.80;56.50;;;;;;20611;6774;120815;-89
2022/10/28 05:10:21;;;;;;;6.70;5.27;;;16.70;56.50;;;;;;20781;6774;117077;-89
2022/10/28 05:12:58;;;;;;;9.40;5.43;;;16.60;57.20;;;;;;20569;6774;277925;-90
2022/10/28 05:15:33;;;;;;;7.57;5.20;;;16.60;57.20;;;;;;20551;6774;340085;-85
2022/10/28 05:18:09;;;;;;;6.82;5.10;;;16.90;56.70;;;;;;20377;6886;307347;-89
2022/10/28 05:20:44;;;;;;;7.50;4.40;;;17.10;56.10;;;;;;20714;6789;117140;-87
2022/10/28 05:23:20;;;;;;;4.63;4.23;;;17.00;56.30;;;;;;20832;6774;117867;-86
2022/10/28 05:25:56;;;;;;;8.30;4.60;;;16.70;56.90;;;;;;20701;6789;117148;-89
2022/10/28 05:28:31;;;;;;;10.68;5.60;;;16.40;57.30;;;;;;20556;6774;337425;-89
2022/10/28 05:31:07;;;;;;;8.03;5.30;;;16.50;57.40;;;;;;20770;6774;117685;-85
2022/10/28 05:33:42;;;;;;;7.70;4.87;;;16.40;57.30;;;;;;20788;6743;117444;-85
2022/10/28 05:36:18;;;;;;;5.50;4.43;;;16.20;57.60;;;;;;20780;6755;117142;-86
2022/10/28 05:38:54;;;;;;;6.37;4.97;;;16.00;58.20;;;;;;20599;6785;117189;-85
2022/10/28 05:41:29;;;;;;;10.03;4.30;;;15.90;58.60;;;;;;20792;6773;130195;-87
2022/10/28 05:44:05;;;;;;;6.62;4.75;;;15.80;59.00;;;;;;20556;6773;308197;-91
2022/10/28 05:46:40;;;;;;;4.50;4.10;;;16.10;59.70;;;;;;20812;6758;117315;-88
2022/10/28 05:49:19;;;;;;;9.45;4.90;;;16.20;59.10;;;;;;20697;6743;309583;-85
2022/10/28 05:51:51;;;;;;;5.73;4.73;;;16.40;57.80;;;;;;20897;6743;119252;-87
2022/10/28 05:54:28;;;;;;;8.20;5.20;;;16.40;56.70;;;;;;20707;6743;281482;-87
2022/10/28 05:57:03;;;;;;;4.85;4.45;;;16.40;56.70;;;;;;20535;6743;341454;-85
2022/10/28 05:59:39;;;;;;;8.30;4.90;;;16.70;57.30;;;;;;20661;6743;304188;-85
2022/10/28 06:02:15;;;;;;;8.13;4.75;;;16.90;55.50;;;;;;20698;6743;309156;-85
2022/10/28 06:04:56;;;;;;;8.20;4.60;;;17.10;55.00;;;;;;20819;6773;117107;-86
2022/10/28 06:07:26;;;;;;;5.47;4.07;;;16.90;55.30;;;;;;20737;6743;120566;-86
2022/10/28 06:10:01;;;;;;;6.87;4.82;;;16.70;56.00;;;;;;20703;6743;276713;-87
2022/10/28 06:12:37;;;;;;;5.93;4.17;;;16.80;55.60;;;;;;20912;6743;117129;-87
2022/10/28 06:15:12;;;;;;;6.60;4.23;;;16.80;55.80;;;;;;20699;6743;306921;-85
2022/10/28 06:17:48;;;;;;;6.27;4.77;;;17.10;55.00;;;;;;20491;6743;330460;-85
2022/10/28 06:20:24;;;;;;;9.63;4.27;;;17.40;54.10;;;;;;20920;6743;117209;-86
2022/10/28 06:22:59;;;;;;;8.40;4.27;;;17.30;54.30;;;;;;20928;6743;118168;-84
2022/10/28 06:25:35;;;;;;;6.43;4.40;;;17.10;55.00;;;;;;20695;6743;334531;-85
2022/10/28 06:28:10;;;;;;;7.67;4.00;;;17.20;54.60;;;;;;20660;6815;117448;-86
2022/10/28 06:30:46;;;;;;;7.57;4.07;;;17.20;54.60;;;;;;20933;6743;116615;-83
2022/10/28 06:33:22;;;;;;;5.03;4.00;;;17.00;55.00;;;;;;20718;6743;304596;-86
2022/10/28 06:35:57;;;;;;;5.47;3.90;;;17.30;55.20;;;;;;20922;6743;117590;-87
2022/10/28 06:38:33;;;;;;;7.28;4.45;;;17.20;55.00;;;;;;20658;6774;282535;-86
2022/10/28 06:41:08;;;;;;;7.83;3.90;;;17.50;55.70;;;;;;20966;6743;121889;-84
2022/10/28 06:43:44;;;;;;;7.00;4.00;;;17.40;54.80;;;;;;20935;6743;116002;-86
2022/10/28 06:46:20;;;;;;;6.93;4.28;;;17.20;55.20;;;;;;20650;6743;311084;-84
2022/10/28 06:48:55;;;;;;;4.87;4.23;;;17.50;55.50;;;;;;20704;6743;277463;-83
2022/10/28 06:51:31;;;;;;;7.33;4.20;;;17.90;54.80;;;;;;20906;6743;117355;-85
2022/10/28 06:54:06;;;;;;;8.47;4.20;;;17.80;54.70;;;;;;20614;6774;308383;-84
2022/10/28 06:56:44;;;;;;;7.12;4.15;;;17.90;54.20;;;;;;20612;6743;337857;-85
2022/10/28 06:59:18;;;;;;;6.60;4.30;;;18.40;53.00;;;;;;20710;6743;279383;-84
2022/10/28 07:01:54;;;;;;;5.97;3.47;;;18.40;52.90;;;;;;20904;6743;117005;-84
2022/10/28 07:04:29;;;;;;;6.03;4.30;;;18.20;53.30;;;;;;20709;6743;277100;-84
2022/10/28 07:07:15;;;;;;;;;;;;;;;;;;;;;
2022/10/28 07:09:41;;;;;;;8.07;4.20;;;18.00;53.50;;;;;;20687;6743;277136;-86
2022/10/28 07:12:16;;;;;;;5.75;4.32;;;18.10;54.30;;;;;;20710;6743;310372;-87
2022/10/28 07:14:52;;;;;;;6.10;3.90;;;18.30;53.30;;;;;;20941;6743;121210;-85
2022/10/28 07:17:27;;;;;;;5.23;3.67;;;18.10;53.40;;;;;;20744;6743;123789;-83
2022/10/28 07:20:03;;;;;;;5.57;3.93;;;17.90;54.00;;;;;;20930;6743;123355;-84
2022/10/28 07:22:38;;;;;;;5.13;3.60;;;17.60;54.40;;;;;;20931;6743;117253;-85
2022/10/28 07:25:14;;;;;;;4.10;3.70;;;17.50;54.90;;;;;;20930;6743;117020;-84
2022/10/28 07:27:50;;;;;;;4.90;4.30;;;17.30;55.40;;;;;;20655;6774;118892;-86
2022/10/28 07:30:25;;;;;;;6.62;4.10;;;17.30;55.70;;;;;;20721;6743;339641;-84
2022/10/28 07:33:03;;;;;;;9.43;4.43;;;18.20;54.50;;;;;;20718;6743;306061;-86
2022/10/28 07:35:37;;;;;;;7.97;4.10;;;18.20;54.50;;;;;;20904;6743;118391;-85
2022/10/28 07:38:13;;;;;;;10.03;6.80;;;18.30;54.30;;;;;;20929;6743;117399;-86
2022/10/28 07:40:49;;;;;;;9.10;6.80;;;18.40;54.50;;;;;;20723;6743;306397;-86
2022/10/28 07:43:25;;;;;;;8.80;6.83;;;18.40;54.50;;;;;;20907;6743;123252;-85
2022/10/28 07:46:00;;;;;;;8.97;5.90;;;18.40;53.90;;;;;;20890;6743;117481;-87
2022/10/28 07:48:36;;;;;;;7.57;5.10;;;18.30;54.20;;;;;;20814;6774;117228;-87
2022/10/28 07:51:11;;;;;;;7.90;4.30;;;18.20;54.50;;;;;;20702;6743;310729;-86
2022/10/28 07:53:47;;;;;;;6.07;3.90;;;18.40;53.90;;;;;;20913;6743;117098;-84
2022/10/28 07:56:22;;;;;;;5.83;3.80;;;18.50;53.90;;;;;;20845;6743;117937;-85
2022/10/28 07:58:58;;;;;;;5.77;3.13;;;18.40;54.10;;;;;;20924;6743;117936;-84
2022/10/28 08:01:33;;;;;;;4.47;3.50;;;18.30;54.30;;;;;;20810;6774;117659;-84
2022/10/28 08:04:09;;;;;;;6.70;3.70;;;18.30;54.40;;;;;;20931;6743;116936;-85
2022/10/28 08:06:45;;;;;;;9.30;4.20;;;18.20;54.40;;;;;;20618;6743;283024;-84
2022/10/28 08:09:20;;;;;;;4.87;3.33;;;18.50;53.50;;;;;;20930;6743;118213;-84
2022/10/28 08:11:56;;;;;;;4.27;3.43;;;18.70;53.50;;;;;;20824;6774;117237;-84
2022/10/28 08:14:32;;;;;;;4.80;3.43;;;18.90;54.10;;;;;;20710;6743;280191;-84
2022/10/28 08:17:08;;;;;;;4.15;3.30;;;18.90;53.80;;;;;;20514;6774;309656;-85
2022/10/28 08:19:43;;;;;;;5.67;3.40;;;19.40;53.00;;;;;;20909;6743;118022;-83
2022/10/28 08:22:20;;;;;;;6.90;2.93;;;19.60;51.40;;;;;;20712;6743;305523;-83
2022/10/28 08:24:55;;;;;;;4.87;3.00;;;19.60;51.40;;;;;;20711;6743;276974;-84
2022/10/28 08:27:31;;;;;;;4.67;2.80;;;19.90;50.50;;;;;;20522;6743;312999;-83
2022/10/28 08:30:07;;;;;;;3.17;2.87;;;20.20;50.20;;;;;;20926;6743;116980;-84
2022/10/28 08:32:42;;;;;;;4.07;3.12;;;20.10;50.50;;;;;;20711;6743;310122;-83
2022/10/28 08:35:18;;;;;;;5.47;3.00;;;20.20;50.40;;;;;;20717;6743;277632;-83
2022/10/28 08:37:53;;;;;;;3.20;2.80;;;20.50;50.40;;;;;;20720;6743;116696;-84
2022/10/28 08:40:39;;;;;;;4.13;3.17;;;20.40;51.30;;;;;;20930;6743;116993;-84
2022/10/28 08:43:25;;;;;;;5.50;3.80;;;19.90;52.30;;;;;;20939;6743;120304;-84
2022/10/28 08:46:07;;;;;;;7.80;3.80;;;19.90;51.80;;;;;;20696;6743;301836;-83
2022/10/28 08:48:42;;;;;;;3.83;3.30;;;20.10;51.60;;;;;;20890;6785;116870;-83
2022/10/28 08:51:18;;;;;;;7.85;3.85;;;20.10;51.70;;;;;;20720;6743;278599;-84
2022/10/28 08:53:54;;;;;;;9.10;4.40;;;20.20;50.90;;;;;;20823;6774;117016;-83
2022/10/28 08:56:32;;;;;;;6.27;3.37;;;20.20;51.00;;;;;;20857;6743;117442;-83
2022/10/28 08:59:08;;;;;;;6.00;4.10;;;20.10;50.80;;;;;;20717;6743;306453;-83
2022/10/28 09:02:00;;;;;;;6.00;4.00;;;20.10;50.80;;;;;;20707;6743;307433;-84
2022/10/28 09:04:37;;;;;;;6.50;4.10;;;20.70;49.60;;;;;;20289;6815;277877;-83
2022/10/28 09:07:16;;;;;;;5.63;4.33;;;20.70;49.60;;;;;;20490;6774;308757;-84
2022/10/28 09:09:51;;;;;;;5.20;4.00;;;20.90;49.30;;;;;;20925;6743;116491;-84
2022/10/28 09:12:33;;;;;;;6.90;4.50;;;20.80;49.80;;;;;;20934;6743;116851;-84
2022/10/28 09:15:21;;;;;;;6.85;4.40;;;20.50;50.30;;;;;;20740;6743;338838;-84
2022/10/28 09:18:13;;;;;;;5.37;3.70;;;20.60;49.80;;;;;;20717;6743;117594;-84
2022/10/28 09:20:51;;;;;;;5.80;4.27;;;20.50;50.10;;;;;;20944;6743;117214;-85
2022/10/28 09:23:40;;;;;;;4.73;3.53;;;20.30;50.70;;;;;;20929;6743;120440;-85
2022/10/28 09:26:23;;;;;;;5.57;3.60;;;20.10;51.20;;;;;;20903;6743;118162;-85
2022/10/28 09:29:21;;;;;;;4.10;3.60;;;20.00;51.50;;;;;;20930;6743;118412;-84
2022/10/28 09:32:17;;;;;;;5.70;4.10;;;19.90;51.80;;;;;;20701;6743;318429;-85
2022/10/28 09:34:52;;;;;;;10.87;3.43;;;20.30;51.40;;;;;;20848;6774;117273;-84
2022/10/28 09:37:31;;;;;;;6.97;3.83;;;20.40;51.40;;;;;;20522;6743;279505;-84
2022/10/28 09:40:20;;;;;;;7.03;3.70;;;21.00;50.10;;;;;;20723;6743;276345;-84
2022/10/28 09:43:06;;;;;;;5.60;3.90;;;21.00;50.10;;;;;;20921;6743;117020;-86
2022/10/28 09:45:41;;;;;;;4.87;3.50;;;21.10;50.20;;;;;;20689;6743;276700;-84
2022/10/28 09:48:27;;;;;;;5.90;3.87;;;21.20;49.50;;;;;;20714;6743;309218;-85
2022/10/28 09:51:03;;;;;;;4.83;3.60;;;21.50;49.40;;;;;;20917;6743;117507;-86
2022/10/28 09:53:38;;;;;;;7.50;3.20;;;21.40;49.70;;;;;;20803;6774;119911;-84
2022/10/28 09:56:14;;;;;;;4.60;3.43;;;21.10;50.30;;;;;;20873;6743;117355;-84
2022/10/28 09:58:51;;;;;;;7.43;3.50;;;20.90;50.70;;;;;;20929;6743;116603;-84
2022/10/28 10:01:26;;;;;;;6.20;3.80;;;20.60;50.90;;;;;;20688;6743;305250;-84
2022/10/28 10:04:02;;;;;;;5.73;3.93;;;20.70;50.70;;;;;;20939;6743;117487;-84
2022/10/28 10:06:37;;;;;;;7.43;3.70;;;20.70;51.60;;;;;;20844;6743;117275;-86
2022/10/28 10:09:13;;;;;;;5.43;4.07;;;20.50;51.30;;;;;;20733;6743;277585;-84
2022/10/28 10:11:49;;;;;;;4.82;3.72;;;20.70;51.40;;;;;;20688;6743;276910;-84
2022/10/28 10:14:24;;;;;;;4.30;3.80;;;21.10;50.80;;;;;;20620;6774;300246;-84
2022/10/28 10:17:06;;;;;;;4.95;3.87;;;21.40;50.20;;;;;;20597;6743;310362;-84
2022/10/28 10:20:05;;;;;;;8.20;3.77;;;21.60;49.70;;;;;;20292;6785;120001;-85
2022/10/28 10:22:44;;;;;;;5.00;3.90;;;21.50;50.00;;;;;;20823;6777;117094;-83
2022/10/28 10:25:19;;;;;;;4.57;3.97;;;21.30;50.70;;;;;;20624;6774;311382;-85
2022/10/28 10:27:58;;;;;;;8.37;3.57;;;21.50;50.50;;;;;;20689;6774;117804;-85
2022/10/28 10:30:37;;;;;;;7.50;3.72;;;21.70;50.40;;;;;;20675;6755;336076;-85
2022/10/28 10:33:29;;;;;;;4.23;3.33;;;22.10;50.10;;;;;;20886;6755;120217;-85
2022/10/28 10:36:09;;;;;;;5.63;3.60;;;22.30;50.00;;;;;;20634;6755;279542;-84
2022/10/28 10:38:48;;;;;;;7.03;3.60;;;22.90;48.80;;;;;;20668;6755;319622;-89
2022/10/28 10:41:43;;;;;;;8.02;3.90;;;22.90;48.80;;;;;;20650;6755;306608;-85
2022/10/28 10:44:21;;;;;;;7.07;3.40;;;23.20;48.70;;;;;;20873;6757;117177;-86
2022/10/28 10:47:01;;;;;;;8.33;3.50;;;23.10;49.00;;;;;;20756;6757;116927;-85
2022/10/28 10:49:36;;;;;;;7.93;3.93;;;22.90;49.40;;;;;;20645;6756;307288;-87
2022/10/28 10:52:28;;;;;;;7.40;3.60;;;23.00;49.60;;;;;;20843;6756;68210;-90
2022/10/28 10:54:59;;;;;;;3.50;3.03;;;23.00;50.00;;;;;;20884;6756;117195;-86
2022/10/28 10:57:32;;;;;;;5.07;3.67;;;22.90;50.40;;;;;;20489;6756;308937;-84
2022/10/28 11:00:08;;;;;;;5.40;3.65;;;23.20;49.90;;;;;;20665;6756;327290;-84
2022/10/28 11:02:43;;;;;;;5.87;3.07;;;23.60;47.70;;;;;;20672;6756;277699;-86
2022/10/28 11:05:22;;;;;;;4.68;3.28;;;24.00;46.60;;;;;;20667;6756;338903;-85
2022/10/28 11:07:54;;;;;;;5.73;3.00;;;24.20;46.50;;;;;;20445;6756;309202;-85
2022/10/28 11:10:37;;;;;;;6.87;3.27;;;24.40;45.80;;;;;;20876;6757;117413;-86
2022/10/28 11:13:22;;;;;;;5.20;3.57;;;24.20;46.90;;;;;;20686;6757;308298;-86
2022/10/28 11:16:01;;;;;;;5.67;3.40;;;24.10;48.50;;;;;;20867;6757;116158;-85
2022/10/28 11:18:43;;;;;;;3.87;3.40;;;23.90;48.40;;;;;;20676;6757;314893;-85
2022/10/28 11:21:32;;;;;;;4.47;3.17;;;24.00;48.70;;;;;;20881;6757;117641;-85
2022/10/28 11:24:27;;;;;;;7.10;3.50;;;23.90;48.80;;;;;;20687;6757;277610;-85
2022/10/28 11:27:19;;;;;;;4.17;3.10;;;24.10;48.30;;;;;;20744;6757;117097;-85
2022/10/28 11:29:56;;;;;;;6.57;3.77;;;24.20;48.90;;;;;;20658;6756;282071;-82
2022/10/28 11:32:41;;;;;;;5.33;3.00;;;24.20;48.90;;;;;;20877;6757;117087;-84
2022/10/28 11:35:36;;;;;;;6.37;2.90;;;24.20;48.90;;;;;;20872;6757;117976;-84
2022/10/28 11:38:52;;;;;;;5.97;3.17;;;24.00;48.70;;;;;;19727;6869;309550;-84
2022/10/28 11:41:27;;;;;;;8.27;2.90;;;24.20;46.00;;;;;;20844;6757;117524;-85
2022/10/28 11:44:03;;;;;;;4.87;3.10;;;24.20;46.70;;;;;;20860;6757;117228;-85
2022/10/28 11:46:44;;;;;;;7.73;3.10;;;24.00;47.50;;;;;;20776;6757;117599;-85
2022/10/28 11:49:46;;;;;;;6.30;3.60;;;23.90;48.20;;;;;;20650;6757;277915;-85
2022/10/28 11:53:04;;;;;;;5.70;3.42;;;24.10;48.00;;;;;;20643;6757;340433;-85
2022/10/28 11:55:44;;;;;;;8.33;3.00;;;24.40;46.60;;;;;;20854;6757;117224;-84
2022/10/28 11:58:39;;;;;;;7.03;3.60;;;24.20;47.00;;;;;;20671;6757;307014;-85
2022/10/28 12:01:31;;;;;;;4.30;3.10;;;24.20;46.50;;;;;;20893;6756;116857;-86
2022/10/28 12:04:07;;;;;;;5.47;3.60;;;24.00;46.90;;;;;;20678;6756;335996;-85
2022/10/28 12:07:09;;;;;;;6.30;3.50;;;24.10;46.70;;;;;;20581;6756;283828;-84
2022/10/28 12:10:11;;;;;;;6.20;3.20;;;24.30;45.80;;;;;;20865;6756;116742;-85
2022/10/28 12:13:06;;;;;;;5.60;3.73;;;24.10;46.10;;;;;;20669;6756;306545;-85
2022/10/28 12:16:02;;;;;;;7.10;3.60;;;24.20;46.60;;;;;;20868;6756;117096;-86
2022/10/28 12:18:51;;;;;;;6.10;3.30;;;24.00;47.20;;;;;;20892;6757;117391;-85
2022/10/28 12:21:39;;;;;;;8.87;3.50;;;23.60;48.00;;;;;;20863;6757;118197;-85
2022/10/28 12:24:26;;;;;;;3.90;3.33;;;23.30;48.80;;;;;;20890;6757;116936;-85
2022/10/28 12:26:50;;;;;;;5.23;3.63;;;23.10;49.40;;;;;;20534;6757;280795;-86
2022/10/28 12:29:32;;;;;;;5.35;3.50;;;23.60;50.20;;;;;;20661;6757;307596;-85
2022/10/28 12:32:13;;;;;;;5.47;3.17;;;23.60;50.10;;;;;;20887;6757;117652;-87
2022/10/28 12:34:59;;;;;;;6.77;4.00;;;23.80;50.30;;;;;;20674;6757;278390;-85
2022/10/28 12:37:35;;;;;;;5.53;3.60;;;24.10;50.70;;;;;;20478;6757;309623;-85
2022/10/28 12:40:27;;;;;;;;;;;;;;;;;;;;;
2022/10/28 12:42:56;;;;;;;7.27;3.70;;;24.40;49.00;;;;;;20677;6757;277581;-86
2022/10/28 12:45:32;;;;;;;9.83;3.47;;;24.60;48.30;;;;;;20859;6757;117090;-86
2022/10/28 12:48:18;;;;;;;6.57;3.10;;;24.50;48.20;;;;;;20591;6828;119374;-86
2022/10/28 12:51:00;;;;;;;8.07;4.05;;;24.30;48.30;;;;;;20669;6757;336155;-86
2022/10/28 12:53:35;;;;;;;8.03;3.70;;;24.40;49.00;;;;;;20653;6757;278839;-86
2022/10/28 12:56:11;;;;;;;5.83;2.90;;;24.70;48.60;;;;;;20827;6757;123844;-86
2022/10/28 12:58:58;;;;;;;4.67;3.10;;;24.70;48.40;;;;;;20870;6757;117121;-85
2022/10/28 13:01:32;;;;;;;6.70;3.30;;;24.40;48.30;;;;;;20645;6757;277995;-85
2022/10/28 13:04:08;;;;;;;8.03;2.90;;;24.50;46.10;;;;;;20866;6757;117297;-84
2022/10/28 13:07:00;;;;;;;4.83;3.20;;;24.50;46.80;;;;;;20565;6757;278516;-86
2022/10/28 13:09:45;;;;;;;6.00;3.00;;;24.60;45.90;;;;;;20649;6757;281720;-85
2022/10/28 13:13:00;;;;;;;3.30;2.93;;;25.00;47.20;;;;;;20878;6756;117501;-85
2022/10/28 13:16:17;;;;;;;6.32;3.10;;;24.90;47.50;;;;;;20636;6756;306385;-85
2022/10/28 13:19:23;;;;;;;5.50;2.67;;;25.00;46.80;;;;;;19761;7117;118723;-85
2022/10/28 13:22:16;;;;;;;6.17;2.90;;;24.90;47.40;;;;;;18773;7415;314265;-86
2022/10/28 13:25:18;;;;;;;5.17;2.90;;;25.30;45.90;;;;;;20162;6785;276331;-86
2022/10/28 13:27:57;;;;;;;8.40;3.28;;;25.30;45.90;;;;;;20483;6743;279878;-85
2022/10/28 13:30:34;;;;;;;4.90;3.40;;;25.50;45.20;;;;;;20918;6743;116832;-85
2022/10/28 13:33:09;;;;;;;5.47;3.03;;;25.40;45.80;;;;;;20923;6743;117064;-85
2022/10/28 13:35:45;;;;;;;6.27;3.33;;;25.10;46.80;;;;;;20804;6774;123347;-84